Home > Products > Valid Products > TAF

000
FTUS43 KDTX 180404 AAB
TAFDTW
TAF AMD
KDTW 180404Z 1804/1906 27010KT P6SM SCT028 BKN035
     FM180600 27009KT P6SM OVC025
     FM181600 28008KT P6SM OVC025=



000
FTUS43 KDTX 180402 AAB
TAFMBS
TAF AMD
KMBS 180402Z 1804/1824 28010KT P6SM OVC015
     FM181600 32007KT P6SM OVC025=



000
FTUS43 KDTX 180401 AAA
TAFFNT
TAF AMD
KFNT 180401Z 1804/1824 29010KT P6SM OVC022
     FM181600 31007KT P6SM OVC025=



000
FTUS43 KDTX 180219 AAA
TAFDTW
TAF AMD
KDTW 180219Z 1802/1906 27012KT P6SM OVC028
     FM180500 27010KT P6SM SCT028 BKN035
     FM180900 27009KT P6SM BKN025
     FM181600 28008KT P6SM OVC025=



000
FTUS43 KDTX 180213 AAA
TAFMBS
TAF AMD
KMBS 180213Z 1802/1824 27011KT P6SM -SHSN BKN040
     FM180600 29008KT P6SM BKN025
     FM181600 32007KT P6SM OVC025=



000
FTUS43 KDTX 172320
TAFDET
TAF
KDET 172320Z 1800/1824 28013G20KT P6SM OVC025
     FM180100 27012KT P6SM OVC028
     FM180800 28009KT P6SM BKN025
     FM181600 29008KT P6SM OVC025=



000
FTUS43 KDTX 172320
TAFMBS
TAF
KMBS 172320Z 1800/1824 28013G20KT P6SM OVC025
     FM180100 28011KT P6SM OVC028
     FM180600 29008KT P6SM BKN025
     FM181600 32007KT P6SM OVC025=



000
FTUS43 KDTX 172320
TAFDTW
TAF
KDTW 172320Z 1800/1906 27013G20KT P6SM OVC025
     FM180100 27012KT P6SM OVC028
     FM180800 27009KT P6SM BKN025
     FM181600 28008KT P6SM OVC025=



000
FTUS43 KDTX 172320
TAFFNT
TAF
KFNT 172320Z 1800/1824 28013G20KT P6SM BKN035
     FM180100 28012KT P6SM BKN035
     FM180800 29009KT P6SM BKN025
     FM181600 31007KT P6SM OVC025=



000
FTUS43 KDTX 172041 AAA
TAFFNT
TAF AMD
KFNT 172041Z 1721/1818 28016G24KT P6SM -SHSN OVC025
     FM180100 28011KT P6SM BKN035
     FM180600 28009KT P6SM BKN025
     FM181600 31007KT P6SM OVC025=



000
FTUS43 KDTX 172039 AAA
TAFDTW
TAF AMD
KDTW 172039Z 1721/1824 27015G22KT P6SM OVC025
     FM180100 26012KT P6SM BKN035
     FM180800 27009KT P6SM BKN025
     FM181600 28008KT P6SM OVC025=



000
FTUS43 KDTX 172039 AAA
TAFDET
TAF AMD
KDET 172039Z 1721/1818 28012G20KT P6SM -SHSN OVC025
     FM180100 26011KT P6SM BKN035
     FM180800 28007KT P6SM BKN025
     FM181600 29007KT P6SM OVC025=



000
FTUS43 KDTX 171922 AAA
TAFMBS
TAF AMD
KMBS 171922Z 1719/1818 28016G26KT P6SM -SHSN BKN022 OVC040
      TEMPO 1721/1724 4SM -SHSN OVC018
     FM180100 27011KT P6SM BKN035
     FM180600 29008KT P6SM BKN025
     FM181600 32007KT P6SM OVC025=



000
FTUS43 KDTX 171728
TAFMBS
TAF
KMBS 171728Z 1718/1818 28018G26KT P6SM -SHSN BKN022 OVC040
     FM172200 28015G23KT P6SM OVC030
     FM180100 27011KT P6SM BKN035
     FM180600 29008KT P6SM BKN025
     FM181600 32007KT P6SM OVC025=



000
FTUS43 KDTX 171728
TAFDET
TAF
KDET 171728Z 1718/1818 28014G23KT P6SM -SHSN OVC025
     FM172000 28014G23KT P6SM OVC030
     FM180100 26011KT P6SM BKN035
     FM180800 28007KT P6SM BKN025
     FM181600 29007KT P6SM OVC025=



000
FTUS43 KDTX 171728
TAFDTW
TAF
KDTW 171728Z 1718/1824 27016G25KT P6SM OVC025
     FM172000 28016G25KT P6SM OVC030
     FM180100 26012KT P6SM BKN035
     FM180800 27009KT P6SM BKN025
     FM181600 28008KT P6SM OVC025=



000
FTUS43 KDTX 171728
TAFFNT
TAF
KFNT 171728Z 1718/1818 28016G25KT P6SM -SHSN OVC028
     FM172200 28015G24KT P6SM OVC030
     FM180100 28011KT P6SM BKN035
     FM180600 28009KT P6SM BKN025
     FM181600 31007KT P6SM OVC025=



000
FTUS43 KDTX 171516 AAA
TAFMBS
TAF AMD
KMBS 171516Z 1715/1812 28017G25KT 6SM -SHSN OVC018
     FM171700 28017G25KT P6SM -SHSN OVC022
     FM172200 28015G23KT P6SM OVC030
     FM180100 26013KT P6SM BKN040
     FM180800 26013KT P6SM SCT025=



000
FTUS43 KDTX 171513 AAA
TAFFNT
TAF AMD
KFNT 171513Z 1715/1812 28016G25KT 6SM -SHSN OVC021
     FM172200 28015G24KT P6SM OVC025
     FM180100 26013KT P6SM BKN040
     FM180800 26013KT P6SM BKN025=



000
FTUS43 KDTX 171510 AAB
TAFDET
TAF AMD
KDET 171510Z 1715/1812 28015G25KT P6SM -SHSN OVC025
     FM172000 28015G25KT P6SM OVC030
     FM180100 26013KT P6SM BKN040
     FM180800 26013KT P6SM BKN025=



000
FTUS43 KDTX 171509 AAA
TAFDTW
TAF AMD
KDTW 171509Z 1715/1818 27015G25KT P6SM -SHSN OVC025
     FM172000 28016G25KT P6SM OVC030
     FM180100 26013KT P6SM BKN040
     FM180800 26013KT P6SM BKN025
     FM181500 28010KT P6SM BKN040=



000
FTUS43 KDTX 171423 AAA
TAFDET
TAF AMD
KDET 171423Z 1714/1812 28015G25KT 6SM -SHSN OVC020
     FM171600 28015G25KT P6SM BKN035
     FM180100 26013KT P6SM BKN040
     FM180800 26013KT P6SM BKN025=



000
FTUS43 KDTX 171125
TAFFNT
TAF
KFNT 171125Z 1712/1812 28015G25KT 6SM -SHSN OVC017
     FM171600 28015G25KT P6SM OVC035
     FM180100 26013KT P6SM BKN040
     FM180800 26013KT P6SM BKN025=



000
FTUS43 KDTX 171125
TAFMBS
TAF
KMBS 171125Z 1712/1812 28015G25KT 6SM -SHSN OVC025
     FM171600 28015G25KT P6SM OVC035
     FM180100 26013KT P6SM BKN040
     FM180800 26013KT P6SM SCT025=



000
FTUS43 KDTX 171125
TAFDET
TAF
KDET 171125Z 1712/1812 28015G25KT 6SM -SHSN OVC017
     FM171600 28015G25KT P6SM BKN035
     FM180100 26013KT P6SM BKN040
     FM180800 26013KT P6SM BKN025=



000
FTUS43 KDTX 171125
TAFDTW
TAF
KDTW 171125Z 1712/1818 28015G25KT 6SM -SHSN OVC020
     FM171600 28015G25KT P6SM BKN035
     FM180100 26013KT P6SM BKN040
     FM180800 26013KT P6SM BKN025
     FM181500 28010KT P6SM BKN040=



000
FTUS43 KDTX 170906 AAA
TAFDET
TAF AMD
KDET 170906Z 1709/1806 28013G20KT P6SM OVC020
     FM171700 28015G25KT P6SM BKN035
     FM180000 28012KT P6SM OVC035=



000
FTUS43 KDTX 170906 AAA
TAFDET
TAF AMD
KDET 170906Z 1709/1806 28013G20KT P6SM OVC020
     FM171700 28015G25KT P6SM BKN035
     FM180000 28012KT P6SM OVC035=



000
FTUS43 KDTX 170905 AAA
TAFDTW
TAF AMD
KDTW 170905Z 1709/1812 26013G20KT P6SM OVC020
     FM171700 28015G25KT P6SM BKN035
     FM180000 28012KT P6SM OVC035=



000
FTUS43 KDTX 170905 AAA
TAFDTW
TAF AMD
KDTW 170905Z 1709/1812 26013G20KT P6SM OVC020
     FM171700 28015G25KT P6SM BKN035
     FM180000 28012KT P6SM OVC035=



000
FTUS43 KDTX 170539
TAFDTW
TAF
KDTW 170539Z 1706/1812 26014G22KT P6SM BKN018 OVC025
     FM171000 26016G26KT P6SM BKN028 OVC035
     FM171700 25015G24KT P6SM BKN035
     FM180000 28012KT P6SM OVC035=



000
FTUS43 KDTX 170539
TAFFNT
TAF
KFNT 170539Z 1706/1806 26014G22KT P6SM -SHRA BKN012 OVC022
     FM170700 27013G22KT P6SM -SHSN BKN012 OVC020
     FM171000 27015G26KT P6SM BKN022 OVC030
     FM171800 27015G24KT P6SM OVC035
     FM180000 28012KT P6SM OVC035=



000
FTUS43 KDTX 170539
TAFMBS
TAF
KMBS 170539Z 1706/1806 26014G22KT P6SM -SHRA BKN012 OVC022
     FM170700 27013G22KT P6SM -SHSN BKN012 OVC020
     FM171000 27014G25KT P6SM BKN022 OVC030
     FM171500 28015G24KT P6SM OVC040
     FM180000 28012KT P6SM OVC035=



000
FTUS43 KDTX 170539
TAFDET
TAF
KDET 170539Z 1706/1806 26014G22KT P6SM BKN018 OVC025
     FM171000 26016G26KT P6SM BKN028 OVC035
     FM171700 25015G24KT P6SM BKN035
     FM180000 28012KT P6SM OVC035=



000
FTUS43 KDTX 170319 AAA
TAFMBS
TAF AMD
KMBS 170319Z 1703/1724 26015G21KT P6SM -SHRA BKN009 OVC016
     FM170500 26014G22KT P6SM -SHRA BKN012 OVC022
     FM170700 27013G22KT P6SM -SHSN BKN012 OVC020
     FM171000 27014G25KT P6SM BKN022 OVC030
     FM171500 28015G24KT P6SM OVC040=



000
FTUS43 KDTX 170312 AAA
TAFFNT
TAF AMD
KFNT 170312Z 1703/1724 26015G21KT 5SM -SHRA BR BKN009 OVC016
     FM170500 26014G22KT P6SM BKN012 OVC022
     FM170800 27015G26KT P6SM BKN022 OVC030
     FM171500 27015G24KT P6SM OVC040=



000
FTUS43 KDTX 170309 AAA
TAFDET
TAF AMD
KDET 170309Z 1703/1724 24010KT 6SM -RA BR OVC015
     FM170500 26014G22KT P6SM BKN018 OVC025
     FM170900 26016G26KT P6SM BKN028 OVC035
     FM171500 25015G24KT P6SM BKN040=



000
FTUS43 KDTX 170307 AAA
TAFDTW
TAF AMD
KDTW 170307Z 1703/1806 25012KT P6SM OVC015
     FM170500 26014G22KT P6SM BKN018 OVC025
     FM170900 26016G26KT P6SM BKN028 OVC035
     FM171500 25015G24KT P6SM BKN040
     FM180000 27013KT P6SM OVC035=



000
FTUS43 KDTX 162320
TAFMBS
TAF
KMBS 162320Z 1700/1724 28005KT 2SM -SHRA BR OVC006
     FM170500 27011G19KT 6SM -SHRA BKN008 OVC012
     FM170700 27013G22KT P6SM -SHSN BKN012 OVC020
     FM171000 27014G25KT P6SM BKN022 OVC030
     FM171500 28015G24KT P6SM OVC040=



000
FTUS43 KDTX 162320
TAFDTW
TAF
KDTW 162320Z 1700/1806 24010KT 4SM BR BKN008 OVC015
     FM170500 26014G22KT P6SM BKN018 OVC025
     FM170900 26016G26KT P6SM BKN028 OVC035
     FM171500 25015G24KT P6SM BKN040
     FM180000 27013KT P6SM OVC035=



000
FTUS43 KDTX 162320
TAFDET
TAF
KDET 162320Z 1700/1724 24010KT 6SM BR BKN008 OVC015
     FM170500 26014G22KT P6SM BKN018 OVC025
     FM170900 26016G26KT P6SM BKN028 OVC035
     FM171500 25015G24KT P6SM BKN040=



000
FTUS43 KDTX 162320
TAFFNT
TAF
KFNT 162320Z 1700/1724 26008KT 2SM -SHRA BR OVC008
     FM170500 27012G20KT P6SM -SHRA BKN011 OVC020
     FM170800 27015G26KT P6SM BKN022 OVC030
     FM171500 27015G24KT P6SM OVC040=



000
FTUS43 KDTX 162231 AAB
TAFDET
TAF AMD
KDET 162231Z 1623/1718 24010KT 4SM -SHRA BR BKN008 OVC018
     FM170400 26014G22KT P6SM BKN018 OVC025
     FM170800 26016G26KT P6SM BKN028 OVC035
     FM171400 25015G24KT P6SM BKN040=



000
FTUS43 KDTX 162230 AAB
TAFFNT
TAF AMD
KFNT 162230Z 1623/1718 26008KT 2SM -SHRA BR OVC006
     FM170400 27012G20KT P6SM -SHRA BKN011 OVC020
     FM170800 27015G26KT P6SM BKN022 OVC030
     FM171400 27015G24KT P6SM OVC040=



000
FTUS43 KDTX 162015 AAA
TAFMBS
TAF AMD
KMBS 162015Z 1620/1718 28005KT 6SM -SHRA BR OVC008
     FM170200 27011G19KT P6SM -SHRA BKN009 OVC015
     FM170600 27013G22KT P6SM -SHSN BKN015 OVC020
     FM171000 27014G25KT P6SM BKN022 OVC030
     FM171400 28015G24KT P6SM OVC040=



000
FTUS43 KDTX 162012 AAA
TAFFNT
TAF AMD
KFNT 162012Z 1620/1718 26008KT 6SM -SHRA BR OVC008
     FM170200 27012G20KT P6SM -SHRA BKN011 OVC020
     FM170800 27015G26KT P6SM BKN022 OVC030
     FM171400 27015G24KT P6SM OVC040=



000
FTUS43 KDTX 162009 AAA
TAFDET
TAF AMD
KDET 162009Z 1620/1718 24010KT 6SM -SHRA BR BKN010 OVC018
      TEMPO 1620/1622 OVC018
     FM170200 26014G22KT P6SM BKN018 OVC025
     FM170800 26016G26KT P6SM BKN028 OVC035
     FM171400 25015G24KT P6SM BKN040=



000
FTUS43 KDTX 162008 AAA
TAFDTW
TAF AMD
KDTW 162008Z 1620/1724 24010KT 6SM -SHRA BR BKN010 OVC018
      TEMPO 1620/1622 OVC018
     FM170200 26014G22KT P6SM BKN018 OVC025
     FM170800 26016G26KT P6SM BKN028 OVC035
     FM171400 25015G24KT P6SM BKN040=



000
FTUS43 KDTX 161721
TAFMBS
TAF
KMBS 161721Z 1618/1718 15003KT 2SM -SHRA BR OVC004
     FM162200 28005KT 2SM -SHRA BR OVC006
     FM170200 27011G19KT 6SM -SHRA BKN008 OVC012
     FM170600 27013G22KT P6SM -SHSN BKN012 OVC020
     FM171000 27014G25KT P6SM BKN022 OVC030
     FM171400 28015G24KT P6SM OVC040=



000
FTUS43 KDTX 161721
TAFFNT
TAF
KFNT 161721Z 1618/1718 VRB03KT 5SM -SHRA BR OVC005
     FM162200 26008KT 4SM -SHRA BR OVC008
     FM170200 27012G20KT P6SM -SHRA BKN011 OVC020
     FM170800 27015G26KT P6SM BKN022 OVC030
     FM171400 27015G24KT P6SM OVC040=



000
FTUS43 KDTX 161721
TAFDTW
TAF
KDTW 161721Z 1618/1724 24007KT 3SM -SHRA BKN005 OVC008
     FM161900 24010KT 6SM BR BKN008 OVC015
      TEMPO 1619/1621 OVC015
     FM170200 26014G22KT P6SM BKN018 OVC025
     FM170800 26016G26KT P6SM BKN028 OVC035
     FM171400 25015G24KT P6SM BKN040=



000
FTUS43 KDTX 161721
TAFDET
TAF
KDET 161721Z 1618/1718 24007KT 3SM -SHRA OVC004
     FM161900 24010KT 6SM BR BKN008 OVC015
      TEMPO 1619/1621 OVC015
     FM170200 26014G22KT P6SM BKN018 OVC025
     FM170800 26016G26KT P6SM BKN028 OVC035
     FM171400 25015G24KT P6SM BKN040=



000
FTUS43 KDTX 161644 AAB
TAFMBS
TAF AMD
KMBS 161644Z 1617/1712 15003KT 3/4SM -SHRA BR OVC002
     FM162200 28005KT 2SM -SHRA BR OVC004
     FM170300 26013G20KT P6SM OVC025
     FM170800 26013G20KT P6SM BKN035=



000
FTUS43 KDTX 161643 AAB
TAFFNT
TAF AMD
KFNT 161643Z 1617/1712 14002KT 2SM -SHRA BR OVC006
     FM161800 VRB03KT 3SM -SHRA BR OVC005
     FM162100 26008KT 4SM -SHRA BR OVC006
     FM170200 26013G20KT P6SM OVC025
     FM170800 26013G20KT P6SM BKN035=



000
FTUS43 KDTX 161640 AAA
TAFDET
TAF AMD
KDET 161640Z 1617/1712 14007KT 1SM -SHRA BR OVC003
     FM161800 24007KT 3SM -SHRA BKN005 OVC008
     FM162000 24010KT 6SM BR BKN008 OVC015
     FM170200 26013G20KT P6SM OVC025
     FM170800 26013G20KT P6SM BKN035=



000
FTUS43 KDTX 161639 AAB
TAFDTW
TAF AMD
KDTW 161639Z 1617/1718 13004KT 2SM -SHRA BR OVC004
     FM161800 24007KT 3SM -SHRA BKN005 OVC008
     FM162000 24010KT 6SM BR BKN008 OVC015
     FM170200 26013G20KT P6SM OVC025
     FM170800 26013G20KT P6SM BKN035=



000
FTUS43 KDTX 161419 AAA
TAFMBS
TAF AMD
KMBS 161419Z 1614/1712 13004KT 1/2SM -SHRA FG VV002
     FM161800 21005KT 2SM -SHRA BR OVC005
     FM162200 24010KT 6SM BR OVC015
     FM170300 26013G20KT P6SM OVC025
     FM170800 26013G20KT P6SM BKN035=



000
FTUS43 KDTX 161418 AAA
TAFFNT
TAF AMD
KFNT 161418Z 1614/1712 14004KT 1/2SM -SHRA FG VV002
     FM161700 21005KT 3SM -SHRA BR OVC006
     FM162100 24010KT 6SM BR OVC015
     FM170200 26013G20KT P6SM OVC025
     FM170800 26013G20KT P6SM BKN035=



000
FTUS43 KDTX 161415 AAA
TAFDTW
TAF AMD
KDTW 161415Z 1614/1718 13004KT 1SM -SHRA BR OVC003
     FM161600 21005KT 3SM -SHRA BR OVC006
     FM162000 24010KT 6SM BR OVC015
     FM170200 26013G20KT P6SM OVC025
     FM170800 26013G20KT P6SM BKN035=



000
FTUS43 KDTX 161135
TAFDTW
TAF
KDTW 161135Z 1612/1718 09006KT 2SM BR OVC006
     FM161300 13007KT 1SM -SHRA BR OVC003
     FM161600 21005KT 3SM -SHRA BR OVC006
     FM162000 24010KT 6SM BR OVC015
     FM170200 26013G20KT P6SM OVC025
     FM170800 26013G20KT P6SM BKN035=



000
FTUS43 KDTX 161135
TAFMBS
TAF
KMBS 161135Z 1612/1712 11007KT 3SM BR OVC006
     FM161300 13007KT 1SM -SHRA BR OVC003
     FM161800 21005KT 3SM -SHRA BR OVC006
     FM162200 24010KT 6SM BR OVC015
     FM170300 26013G20KT P6SM OVC025
     FM170800 26013G20KT P6SM BKN035=



000
FTUS43 KDTX 161135
TAFFNT
TAF
KFNT 161135Z 1612/1712 14007KT 1SM -SHRA BR OVC003
     FM161700 21005KT 3SM -SHRA BR OVC006
     FM162100 24010KT 6SM BR OVC015
     FM170200 26013G20KT P6SM OVC025
     FM170800 26013G20KT P6SM BKN035=



000
FTUS43 KDTX 161135
TAFDET
TAF
KDET 161135Z 1612/1712 14007KT 1SM -SHRA BR OVC003
     FM161700 21005KT 3SM -SHRA BR OVC006
     FM162000 24010KT 6SM BR OVC015
     FM170200 26013G20KT P6SM OVC025
     FM170800 26013G20KT P6SM BKN035=



000
FTUS43 KDTX 160915 AAA
TAFMBS
TAF AMD
KMBS 160915Z 1609/1706 13008KT 2SM -RA BR OVC007
     FM161200 13008KT 1SM -SHRA BR OVC004
     FM161800 24009KT 3SM -SHRA BR OVC006
     FM162100 29012KT 5SM BR OVC009
     FM170200 28015KT 6SM HZ OVC012=



000
FTUS43 KDTX 160913 AAA
TAFFNT
TAF AMD
KFNT 160913Z 1609/1706 13007KT 4SM BR OVC008
     FM161100 13007KT 1SM -SHRA BR OVC004
     FM161800 24009KT 3SM -SHRA BR OVC006
     FM162100 29012KT 5SM BR OVC009
     FM170200 28015KT 6SM HZ OVC012=



000
FTUS43 KDTX 160907 AAA
TAFDET
TAF AMD
KDET 160907Z 1609/1706 13007KT 2SM BR OVC007
     FM161100 15007KT 1SM -RA BR OVC004
     FM161800 24010KT 3SM -SHRA BR OVC012
     FM170200 28015KT 6SM HZ BKN012 OVC022=



000
FTUS43 KDTX 160904 AAA
TAFDTW
TAF AMD
KDTW 160904Z 1609/1712 12007KT 4SM BR OVC007
     FM161100 14007KT 1SM -RA BR OVC004
     FM161800 24010KT 3SM -SHRA BR OVC012
     FM170200 26015KT 6SM HZ BKN012 OVC022=



000
FTUS43 KDTX 160527
TAFFNT
TAF
KFNT 160527Z 1606/1706 13008KT 3SM -RA BR BKN008 OVC015
     FM161000 13008KT 2SM -RA BR OVC008
     FM161400 20010KT 1SM -SHRA BR OVC004
     FM161800 24009KT 3SM -SHRA BR OVC006
     FM162100 29012KT 5SM BR OVC009
     FM170200 28015KT 6SM HZ OVC012=



000
FTUS43 KDTX 160527
TAFDET
TAF
KDET 160527Z 1606/1706 13006KT 3SM -RA BR BKN008 OVC015
     FM161000 13006KT 2SM -RA BR OVC008
     FM161400 15006KT 1SM -RA BR OVC004
     FM161800 24010KT 3SM -SHRA BR OVC012
     FM170200 28015KT 6SM HZ BKN012 OVC022=



000
FTUS43 KDTX 160527
TAFMBS
TAF
KMBS 160527Z 1606/1706 12008KT 5SM BR SCT015 OVC045
     FM160800 14008KT 4SM -RA BR BKN008 OVC015
     FM161000 14008KT 2SM -RA BR OVC008
     FM161400 20010KT 1SM -SHRA BR OVC004
     FM161800 24009KT 3SM -SHRA BR OVC006
     FM162100 29012KT 5SM BR OVC009
     FM170200 28015KT 6SM HZ OVC012=



000
FTUS43 KDTX 160527
TAFDTW
TAF
KDTW 160527Z 1606/1712 11006KT 3SM -RA BR BKN008 OVC015
     FM161000 13006KT 2SM -RA BR OVC008
     FM161400 15006KT 1SM -RA BR OVC004
     FM161800 24010KT 3SM -SHRA BR OVC012
     FM170200 26015KT 6SM HZ BKN012 OVC022=



000
FTUS43 KDTX 160220 AAA
TAFFNT
TAF AMD
KFNT 160220Z 1602/1624 13008KT 5SM HZ OVC100
     FM160500 13009KT 3SM -SHRA BR BKN008 OVC018
     FM161000 12005KT 2SM -RA BR OVC004
     FM161700 24010KT 3SM -SHRA BR OVC012
     FM162000 26009KT P6SM -SHRA OVC015=



000
FTUS43 KDTX 160218 AAA
TAFDET
TAF AMD
KDET 160218Z 1602/1624 12008KT 6SM HZ FEW010 BKN150
     FM160400 11006KT 5SM -SHRA BR SCT028 OVC040
     FM160600 13010KT 4SM -RA BR OVC010
     FM161000 14005KT 3SM -RA BR OVC006
     FM161500 20010KT 4SM -SHRA BR OVC015
     FM161800 24009KT P6SM -SHRA OVC018=



000
FTUS43 KDTX 160216 AAA
TAFDTW
TAF AMD
KDTW 160216Z 1602/1706 10005KT 5SM BR SCT090 BKN150
     FM160300 11006KT 4SM -SHRA BR SCT025 OVC035
     FM160600 13010KT 3SM -RA BR OVC008
     FM161000 14005KT 2SM -RA BR OVC004
     FM161500 20010KT 3SM -SHRA BR OVC015
     FM161800 24009KT P6SM -SHRA OVC018
     FM170000 26015KT P6SM BKN018 OVC025=



000
FTUS43 KDTX 152320
TAFFNT
TAF
KFNT 152320Z 1600/1624 13005KT 6SM HZ SCT090 BKN150
     FM160300 14007KT 5SM BR SCT015 BKN028 OVC045
     FM160700 13010KT 2SM -RA BR OVC008
     FM161000 12005KT 1SM -RA BR OVC004
     FM161700 24010KT 3SM -SHRA BR OVC012
     FM162000 26009KT P6SM -SHRA OVC015=



000
FTUS43 KDTX 152320
TAFDTW
TAF
KDTW 152320Z 1600/1706 12005KT 5SM BR SCT090 BKN150
     FM160200 11007KT 5SM BR SCT015 BKN028 OVC045
     FM160600 13010KT 2SM -RA BR OVC008
     FM161000 14005KT 1SM -RA BR OVC004
     FM161500 20010KT 3SM -SHRA BR OVC015
     FM161800 24009KT P6SM -SHRA OVC018
     FM170000 26015KT P6SM BKN018 OVC025=



000
FTUS43 KDTX 152320
TAFMBS
TAF
KMBS 152320Z 1600/1624 14005KT P6SM SCT045 BKN090
     FM160300 13007KT 5SM BR SCT015 BKN028 OVC045
     FM160700 12010KT 2SM -RA BR OVC008
     FM161000 11005KT 1SM -RA BR OVC004
     FM161800 26010KT 3SM -SHRA BR OVC012
     FM162100 28009KT P6SM -SHRA OVC015=



000
FTUS43 KDTX 152320
TAFDET
TAF
KDET 152320Z 1600/1624 12005KT 5SM BR SCT090 BKN150
     FM160200 11007KT 5SM BR SCT015 BKN028 OVC045
     FM160600 13010KT 2SM -RA BR OVC008
     FM161000 14005KT 1SM -RA BR OVC004
     FM161500 20010KT 3SM -SHRA BR OVC015
     FM161800 24009KT P6SM -SHRA OVC018=



000
FTUS43 KDTX 152255 AAA
TAFDET
TAF AMD
KDET 152255Z 1523/1618 14006KT 5SM BR SCT050 BKN150
     FM160300 15008KT 5SM BR SCT015 OVC028
     FM160600 14010KT 2SM -RA BR OVC008
     FM161000 14005KT 1SM -RA BR OVC004
     FM161600 22010KT 3SM -SHRA BR OVC015=



000
FTUS43 KDTX 152236 AAB
TAFDTW
TAF AMD
KDTW 152236Z 1523/1624 14006KT 5SM HZ SCT090 BKN150
     FM160200 14007KT 5SM BR SCT015 BKN028 OVC045
     FM160600 14010KT 2SM -RA BR OVC008
     FM161000 14005KT 1SM -RA BR OVC004
     FM161600 22010KT 3SM -SHRA BR OVC015
     FM161900 26012KT P6SM -SHRA OVC018=



000
FTUS43 KDTX 152047 AAA
TAFDTW
TAF AMD
KDTW 152047Z 1521/1624 17005KT P6SM BKN250
     FM152300 15006KT 6SM HZ BKN150
     FM160200 16007KT 5SM BR SCT008 OVC025
     FM160600 14010KT 2SM -RA BR OVC008
     FM161000 14005KT 1SM -RA BR OVC004
     FM161600 22010KT 3SM -SHRA BR OVC015
     FM161900 26012KT P6SM -SHRA OVC018=



000
FTUS43 KDTX 151732
TAFDET
TAF
KDET 151732Z 1518/1618 17007KT P6SM SCT015 OVC050
     FM160200 16007KT 5SM BR SCT008 OVC025
     FM160600 14010KT 2SM -RA BR OVC008
     FM161000 14005KT 1SM -RA BR OVC004
     FM161600 22010KT 3SM -SHRA BR OVC015=



000
FTUS43 KDTX 151732
TAFFNT
TAF
KFNT 151732Z 1518/1618 20007KT P6SM SCT025 OVC050
     FM160200 16007KT 4SM -RA BR OVC025
     FM160600 14010KT 2SM -RA BR OVC008
     FM161000 14005KT 1SM -RA BR OVC004=



000
FTUS43 KDTX 151732
TAFDTW
TAF
KDTW 151732Z 1518/1624 17007KT P6SM SCT015 OVC050
      TEMPO 1518/1519 BKN015
     FM160200 16007KT 5SM BR SCT008 OVC025
     FM160600 14010KT 2SM -RA BR OVC008
     FM161000 14005KT 1SM -RA BR OVC004
     FM161600 22010KT 3SM -SHRA BR OVC015
     FM161900 26012KT P6SM -SHRA OVC018=



000
FTUS43 KDTX 151732
TAFMBS
TAF
KMBS 151732Z 1518/1618 20007KT 5SM BR BKN008 OVC040
      TEMPO 1519/1521 6SM BR SCT008 OVC040
     FM152100 18008KT P6SM OVC050
     FM160300 16007KT P6SM OVC025
     FM160600 14010KT 2SM -RA BR OVC008
     FM161000 14005KT 1SM -RA BR OVC004=



000
FTUS43 KDTX 151633 AAB
TAFDTW
TAF AMD
KDTW 151633Z 1517/1618 18007KT 5SM BR BKN011 OVC040
     FM151800 17007KT P6SM SCT030 OVC050
     FM160200 16007KT 5SM BR SCT008 OVC025
     FM160600 14010KT 2SM -RA BR OVC008
     FM161000 14005KT 1SM -RA BR OVC004
     FM161600 22010KT 3SM -SHRA BR OVC015=



000
FTUS43 KDTX 151433 CCA
TAFDTW
TAF COR
KDTW 151433Z 1515/1618 18007KT 5SM BR BKN008 OVC030
      TEMPO 1516/1517 SCT008 BKN030
     FM151700 18007KT P6SM SCT030 OVC060
     FM160200 16007KT 4SM -RA BR OVC025
     FM160600 14010KT 2SM -RA BR OVC008
     FM161000 14005KT 1SM -RA BR OVC004
     FM161600 21010KT 3SM -SHRA BR OVC015=



000
FTUS43 KDTX 151432 AAA
TAFDTW
TAF AMD
KDTW 151432Z 1515/1618 18007KT P6SM BKN008 OVC030
      TEMPO 1516/1517 SCT008 BKN030
     FM151700 18007KT P6SM SCT030 OVC060
     FM160200 16007KT 4SM -RA BR OVC025
     FM160600 14010KT 2SM -RA BR OVC008
     FM161000 14005KT 1SM -RA BR OVC004
     FM161600 21010KT 3SM -SHRA BR OVC015=



000
FTUS43 KDTX 151137
TAFFNT
TAF
KFNT 151137Z 1512/1612 20005KT 4SM BR OVC025
     FM151400 20007KT P6SM SCT025 OVC040
      TEMPO 1514/1517 5SM BR BKN025 OVC040
     FM160200 16007KT 4SM -RA BR OVC025
     FM160600 14010KT 2SM -RA BR OVC008
     FM161000 14005KT 1SM -RA BR OVC004=



000
FTUS43 KDTX 151137
TAFDET
TAF
KDET 151137Z 1512/1612 22007KT P6SM SCT030 BKN060
      TEMPO 1512/1516 5SM BR BKN030 OVC060
     FM160200 16007KT 4SM -RA BR OVC025
     FM160600 14010KT 2SM -RA BR OVC008
     FM161000 14005KT 1SM -RA BR OVC004=



000
FTUS43 KDTX 151137
TAFDTW
TAF
KDTW 151137Z 1512/1618 20007KT P6SM SCT030 BKN060
      TEMPO 1512/1516 5SM BR BKN030 OVC060
     FM160200 16007KT 4SM -RA BR OVC025
     FM160600 14010KT 2SM -RA BR OVC008
     FM161000 14005KT 1SM -RA BR OVC004
     FM161600 21010KT 3SM -SHRA BR OVC015=



000
FTUS43 KDTX 151137
TAFMBS
TAF
KMBS 151137Z 1512/1612 20005KT 2SM BR OVC013
     FM151400 20005KT 4SM BR OVC025
     FM151600 20007KT P6SM SCT025 OVC040
      TEMPO 1516/1519 5SM BR BKN025 OVC040
     FM160200 16007KT 4SM -RA BR OVC025
     FM160600 14010KT 2SM -RA BR OVC008
     FM161000 14005KT 1SM -RA BR OVC004=



000
FTUS43 KDTX 150904 AAA
TAFDET
TAF AMD
KDET 150904Z 1509/1606 23005KT 5SM BR OVC025
      TEMPO 1509/1513 P6SM NSW SCT025 OVC060
     FM151300 23007KT P6SM OVC025
     FM152100 16007KT P6SM OVC035
     FM160100 14008KT 4SM -RA BR OVC015=



000
FTUS43 KDTX 150903 AAA
TAFDTW
TAF AMD
KDTW 150903Z 1509/1612 20005KT 5SM BR OVC025
      TEMPO 1509/1513 P6SM NSW SCT025 OVC060
     FM151300 20007KT P6SM OVC025
     FM152100 16007KT P6SM OVC035
     FM160100 14008KT 4SM -RA BR OVC015
     FM160600 13006KT 3SM -RA BR OVC008=



000
FTUS43 KDTX 150825 AAA
TAFFNT
TAF AMD
KFNT 150825Z 1508/1606 20006KT 4SM BR OVC012
     FM151300 20006KT 6SM BR OVC025
     FM152200 16007KT P6SM BKN025 OVC035
     FM160200 13008KT 4SM -RA BR OVC012=



000
FTUS43 KDTX 150824 AAA
TAFMBS
TAF AMD
KMBS 150824Z 1508/1606 20006KT 2SM BR OVC007
     FM151100 20006KT 4SM BR BKN007 OVC025
     FM152200 16007KT P6SM BKN025 OVC035
     FM160200 12008KT 4SM -RA BR OVC012=



000
FTUS43 KDTX 150530
TAFDET
TAF
KDET 150530Z 1506/1606 20003KT 1SM BR OVC004
     FM150900 19004KT 3SM BR OVC012
     FM151500 18006KT 5SM BR OVC025
     FM152100 16007KT P6SM OVC035
     FM160100 14008KT 4SM -RA BR OVC015=



000
FTUS43 KDTX 150530
TAFDTW
TAF
KDTW 150530Z 1506/1612 20004KT 5SM BR OVC018
     FM150900 19003KT 3SM BR OVC012
     FM151500 18006KT 5SM BR OVC025
     FM152100 16007KT P6SM OVC035
     FM160100 14008KT 4SM -RA BR OVC015
     FM160600 13006KT 3SM -RA BR OVC008=



000
FTUS43 KDTX 150530
TAFFNT
TAF
KFNT 150530Z 1506/1606 00000KT 1/4SM FG VV002
     FM151600 18006KT 5SM BR BKN008 OVC025
     FM152200 16007KT P6SM BKN025 OVC035
     FM160200 13008KT 4SM -RA BR OVC012=



000
FTUS43 KDTX 150530
TAFMBS
TAF
KMBS 150530Z 1506/1606 00000KT 1/4SM FG VV002
      TEMPO 1506/1510 1/2SM FG OVC004
     FM151500 18006KT 5SM BR BKN008 OVC025
     FM152200 16007KT P6SM BKN025 OVC035
     FM160200 12008KT 4SM -RA BR OVC012=



000
FTUS43 KDTX 150418 AAB
TAFDET
TAF AMD
KDET 150418Z 1504/1524 00000KT 1 1/2SM BR OVC005
      TEMPO 1504/1508 3/4SM BR OVC003
     FM150800 VRB03KT 1SM BR OVC006
     FM151500 19006KT 5SM BR OVC010
     FM152000 16007KT P6SM OVC025=



000
FTUS43 KDTX 150417 AAA
TAFMBS
TAF AMD
KMBS 150417Z 1504/1524 20003KT 1/4SM FG VV002
      TEMPO 1505/1508 1/2SM FG OVC004
     FM151500 19006KT 5SM BR OVC010
     FM152000 16007KT P6SM OVC022=



    US Dept of Commerce
    National Oceanic and Atmospheric Administration
    National Weather Service
    1325 East West Highway
    Silver Spring, MD 20910
    Page Author: NWS Internet Services Team
Disclaimer
Information Quality
Credits
Glossary
Privacy Policy
Freedom of Information Act (FOIA)
About Us
Career Opportunities